sensor_id;sensor_type;location;lat;lon;timestamp;P1;durP1;ratioP1;P2;durP2;ratioP2
51838;SDS011;37886;53.174;6.368;2023-07-28T00:02:08;1206.50;;;850.35;;
51838;SDS011;37886;53.174;6.368;2023-07-28T00:04:34;1330.30;;;871.03;;
51838;SDS011;37886;53.174;6.368;2023-07-28T00:07:00;1088.45;;;819.65;;
51838;SDS011;37886;53.174;6.368;2023-07-28T00:09:26;1103.45;;;840.20;;
51838;SDS011;37886;53.174;6.368;2023-07-28T00:11:52;1089.40;;;833.67;;
51838;SDS011;37886;53.174;6.368;2023-07-28T00:14:17;1216.55;;;856.40;;
51838;SDS011;37886;53.174;6.368;2023-07-28T00:16:43;1150.63;;;829.83;;
51838;SDS011;37886;53.174;6.368;2023-07-28T00:19:09;1053.25;;;822.25;;
51838;SDS011;37886;53.174;6.368;2023-07-28T00:21:35;1070.90;;;830.25;;
51838;SDS011;37886;53.174;6.368;2023-07-28T00:24:00;1020.65;;;810.08;;
51838;SDS011;37886;53.174;6.368;2023-07-28T00:26:26;1136.55;;;835.55;;
51838;SDS011;37886;53.174;6.368;2023-07-28T00:28:52;1101.32;;;830.33;;
51838;SDS011;37886;53.174;6.368;2023-07-28T00:31:17;1091.53;;;835.55;;
51838;SDS011;37886;53.174;6.368;2023-07-28T00:33:43;1075.32;;;845.22;;
51838;SDS011;37886;53.174;6.368;2023-07-28T00:36:09;1168.60;;;833.97;;
51838;SDS011;37886;53.174;6.368;2023-07-28T00:38:34;999.75;;;803.33;;
51838;SDS011;37886;53.174;6.368;2023-07-28T00:41:01;1072.55;;;807.10;;
51838;SDS011;37886;53.174;6.368;2023-07-28T00:43:26;1192.78;;;834.40;;
51838;SDS011;37886;53.174;6.368;2023-07-28T00:45:52;1148.22;;;822.33;;
51838;SDS011;37886;53.174;6.368;2023-07-28T00:48:19;1058.25;;;796.53;;
51838;SDS011;37886;53.174;6.368;2023-07-28T00:50:45;1010.28;;;793.35;;
51838;SDS011;37886;53.174;6.368;2023-07-28T00:53:13;986.65;;;812.72;;
51838;SDS011;37886;53.174;6.368;2023-07-28T00:55:39;1110.68;;;842.55;;
51838;SDS011;37886;53.174;6.368;2023-07-28T00:58:06;1114.65;;;814.17;;
51838;SDS011;37886;53.174;6.368;2023-07-28T01:00:32;1028.22;;;804.15;;
51838;SDS011;37886;53.174;6.368;2023-07-28T01:02:58;1320.13;;;868.95;;
51838;SDS011;37886;53.174;6.368;2023-07-28T01:05:26;1023.88;;;799.08;;
51838;SDS011;37886;53.174;6.368;2023-07-28T01:08:16;1145.93;;;847.40;;
51838;SDS011;37886;53.174;6.368;2023-07-28T01:10:50;1062.38;;;806.40;;
51838;SDS011;37886;53.174;6.368;2023-07-28T01:13:16;1063.20;;;808.30;;
51838;SDS011;37886;53.174;6.368;2023-07-28T01:15:42;1084.63;;;824.30;;
51838;SDS011;37886;53.174;6.368;2023-07-28T01:18:08;1022.47;;;803.58;;
51838;SDS011;37886;53.174;6.368;2023-07-28T01:20:34;1029.00;;;784.35;;
51838;SDS011;37886;53.174;6.368;2023-07-28T01:23:08;1170.70;;;821.15;;
51838;SDS011;37886;53.174;6.368;2023-07-28T01:28:12;1301.97;;;853.67;;
51838;SDS011;37886;53.174;6.368;2023-07-28T01:30:40;1129.68;;;816.83;;
51838;SDS011;37886;53.174;6.368;2023-07-28T01:33:06;1136.57;;;821.50;;
51838;SDS011;37886;53.174;6.368;2023-07-28T01:35:33;1251.30;;;844.85;;
51838;SDS011;37886;53.174;6.368;2023-07-28T01:38:01;1099.70;;;811.97;;
51838;SDS011;37886;53.174;6.368;2023-07-28T01:40:26;1470.15;;;872.97;;
51838;SDS011;37886;53.174;6.368;2023-07-28T01:42:52;1257.22;;;843.00;;
51838;SDS011;37886;53.174;6.368;2023-07-28T01:45:18;1112.50;;;823.65;;
51838;SDS011;37886;53.174;6.368;2023-07-28T01:47:43;1064.18;;;805.58;;
51838;SDS011;37886;53.174;6.368;2023-07-28T01:50:09;1382.75;;;855.45;;
51838;SDS011;37886;53.174;6.368;2023-07-28T01:52:35;1135.47;;;805.95;;
51838;SDS011;37886;53.174;6.368;2023-07-28T01:55:00;1230.82;;;836.22;;
51838;SDS011;37886;53.174;6.368;2023-07-28T01:57:26;1336.63;;;879.58;;
51838;SDS011;37886;53.174;6.368;2023-07-28T01:59:55;1319.72;;;867.15;;
51838;SDS011;37886;53.174;6.368;2023-07-28T02:02:21;1257.80;;;849.83;;
51838;SDS011;37886;53.174;6.368;2023-07-28T02:04:47;1177.60;;;828.05;;
51838;SDS011;37886;53.174;6.368;2023-07-28T02:07:12;1132.68;;;799.10;;
51838;SDS011;37886;53.174;6.368;2023-07-28T02:09:38;1205.43;;;822.55;;
51838;SDS011;37886;53.174;6.368;2023-07-28T02:12:04;1170.15;;;815.60;;
51838;SDS011;37886;53.174;6.368;2023-07-28T02:14:30;1312.18;;;876.75;;
51838;SDS011;37886;53.174;6.368;2023-07-28T02:16:55;1221.45;;;835.30;;
51838;SDS011;37886;53.174;6.368;2023-07-28T02:19:21;1111.90;;;832.17;;
51838;SDS011;37886;53.174;6.368;2023-07-28T02:21:47;1131.38;;;805.38;;
51838;SDS011;37886;53.174;6.368;2023-07-28T02:24:12;1175.70;;;808.53;;
51838;SDS011;37886;53.174;6.368;2023-07-28T02:26:38;1208.25;;;838.78;;
51838;SDS011;37886;53.174;6.368;2023-07-28T02:29:04;1121.10;;;802.30;;
51838;SDS011;37886;53.174;6.368;2023-07-28T02:31:29;1232.63;;;845.00;;
51838;SDS011;37886;53.174;6.368;2023-07-28T02:33:55;1385.65;;;901.63;;
51838;SDS011;37886;53.174;6.368;2023-07-28T02:36:20;1217.93;;;856.08;;
51838;SDS011;37886;53.174;6.368;2023-07-28T02:38:46;1149.10;;;807.90;;
51838;SDS011;37886;53.174;6.368;2023-07-28T02:41:12;1036.32;;;790.80;;
51838;SDS011;37886;53.174;6.368;2023-07-28T02:43:38;1299.60;;;880.58;;
51838;SDS011;37886;53.174;6.368;2023-07-28T02:46:04;1263.47;;;870.60;;
51838;SDS011;37886;53.174;6.368;2023-07-28T02:48:30;1199.00;;;835.78;;
51838;SDS011;37886;53.174;6.368;2023-07-28T02:50:55;1067.90;;;803.30;;
51838;SDS011;37886;53.174;6.368;2023-07-28T02:53:21;1334.82;;;878.50;;
51838;SDS011;37886;53.174;6.368;2023-07-28T02:55:47;1280.53;;;883.05;;
51838;SDS011;37886;53.174;6.368;2023-07-28T02:58:13;982.90;;;765.17;;
51838;SDS011;37886;53.174;6.368;2023-07-28T03:00:43;1046.10;;;798.67;;
51838;SDS011;37886;53.174;6.368;2023-07-28T03:03:10;984.13;;;784.80;;
51838;SDS011;37886;53.174;6.368;2023-07-28T03:05:37;989.40;;;776.20;;
51838;SDS011;37886;53.174;6.368;2023-07-28T03:08:04;1259.03;;;867.90;;
51838;SDS011;37886;53.174;6.368;2023-07-28T03:10:30;987.55;;;766.92;;
51838;SDS011;37886;53.174;6.368;2023-07-28T03:12:55;948.55;;;755.40;;
51838;SDS011;37886;53.174;6.368;2023-07-28T03:15:21;947.05;;;744.90;;
51838;SDS011;37886;53.174;6.368;2023-07-28T03:17:47;1074.85;;;801.00;;
51838;SDS011;37886;53.174;6.368;2023-07-28T03:20:14;925.03;;;724.70;;
51838;SDS011;37886;53.174;6.368;2023-07-28T03:22:39;963.38;;;751.40;;
51838;SDS011;37886;53.174;6.368;2023-07-28T03:25:05;1085.03;;;810.45;;
51838;SDS011;37886;53.174;6.368;2023-07-28T03:27:31;1121.22;;;801.78;;
51838;SDS011;37886;53.174;6.368;2023-07-28T03:29:57;1241.18;;;856.80;;
51838;SDS011;37886;53.174;6.368;2023-07-28T03:32:23;1156.75;;;829.08;;
51838;SDS011;37886;53.174;6.368;2023-07-28T03:34:48;1171.55;;;820.00;;
51838;SDS011;37886;53.174;6.368;2023-07-28T03:37:14;950.08;;;735.42;;
51838;SDS011;37886;53.174;6.368;2023-07-28T03:39:40;1134.40;;;816.55;;
51838;SDS011;37886;53.174;6.368;2023-07-28T03:42:05;1033.72;;;749.63;;
51838;SDS011;37886;53.174;6.368;2023-07-28T03:44:32;1058.95;;;775.20;;
51838;SDS011;37886;53.174;6.368;2023-07-28T03:46:58;1019.63;;;768.97;;
51838;SDS011;37886;53.174;6.368;2023-07-28T03:49:24;1188.45;;;853.83;;
51838;SDS011;37886;53.174;6.368;2023-07-28T03:51:50;1152.05;;;823.17;;
51838;SDS011;37886;53.174;6.368;2023-07-28T03:54:16;1119.32;;;803.22;;
51838;SDS011;37886;53.174;6.368;2023-07-28T03:56:41;1235.82;;;876.20;;
51838;SDS011;37886;53.174;6.368;2023-07-28T03:59:07;1098.30;;;810.58;;
51838;SDS011;37886;53.174;6.368;2023-07-28T04:01:33;1055.25;;;791.08;;
51838;SDS011;37886;53.174;6.368;2023-07-28T04:03:58;1250.20;;;880.97;;
51838;SDS011;37886;53.174;6.368;2023-07-28T04:06:45;1185.85;;;823.38;;
51838;SDS011;37886;53.174;6.368;2023-07-28T04:09:15;1130.72;;;808.92;;
51838;SDS011;37886;53.174;6.368;2023-07-28T04:11:42;954.67;;;762.50;;
51838;SDS011;37886;53.174;6.368;2023-07-28T04:14:08;1125.88;;;838.50;;
51838;SDS011;37886;53.174;6.368;2023-07-28T04:16:34;1093.80;;;825.13;;
51838;SDS011;37886;53.174;6.368;2023-07-28T04:19:00;1016.50;;;784.42;;
51838;SDS011;37886;53.174;6.368;2023-07-28T04:21:25;1216.20;;;887.90;;
51838;SDS011;37886;53.174;6.368;2023-07-28T04:23:51;934.15;;;758.80;;
51838;SDS011;37886;53.174;6.368;2023-07-28T04:26:17;931.80;;;762.10;;
51838;SDS011;37886;53.174;6.368;2023-07-28T04:28:43;934.80;;;749.97;;
51838;SDS011;37886;53.174;6.368;2023-07-28T04:31:09;1039.00;;;804.97;;
51838;SDS011;37886;53.174;6.368;2023-07-28T04:33:35;1094.90;;;800.00;;
51838;SDS011;37886;53.174;6.368;2023-07-28T04:36:04;959.38;;;748.33;;
51838;SDS011;37886;53.174;6.368;2023-07-28T04:38:30;957.65;;;751.95;;
51838;SDS011;37886;53.174;6.368;2023-07-28T04:40:56;1112.78;;;831.92;;
51838;SDS011;37886;53.174;6.368;2023-07-28T04:43:21;1100.65;;;822.40;;
51838;SDS011;37886;53.174;6.368;2023-07-28T04:45:47;1029.82;;;774.88;;
51838;SDS011;37886;53.174;6.368;2023-07-28T04:48:13;912.60;;;722.63;;
51838;SDS011;37886;53.174;6.368;2023-07-28T04:50:38;962.70;;;783.50;;
51838;SDS011;37886;53.174;6.368;2023-07-28T04:53:05;1072.90;;;820.45;;
51838;SDS011;37886;53.174;6.368;2023-07-28T04:55:31;998.65;;;771.90;;
51838;SDS011;37886;53.174;6.368;2023-07-28T04:57:56;873.10;;;732.25;;
51838;SDS011;37886;53.174;6.368;2023-07-28T05:00:22;835.83;;;702.83;;
51838;SDS011;37886;53.174;6.368;2023-07-28T05:02:48;1075.00;;;800.50;;
51838;SDS011;37886;53.174;6.368;2023-07-28T05:05:14;1021.88;;;791.17;;
51838;SDS011;37886;53.174;6.368;2023-07-28T05:07:40;1143.68;;;837.88;;
51838;SDS011;37886;53.174;6.368;2023-07-28T05:10:06;1053.57;;;800.55;;
51838;SDS011;37886;53.174;6.368;2023-07-28T05:12:32;1113.45;;;824.15;;
51838;SDS011;37886;53.174;6.368;2023-07-28T05:14:58;939.53;;;751.42;;
51838;SDS011;37886;53.174;6.368;2023-07-28T05:17:24;1115.78;;;824.60;;
51838;SDS011;37886;53.174;6.368;2023-07-28T05:19:50;937.92;;;748.25;;
51838;SDS011;37886;53.174;6.368;2023-07-28T05:22:16;1124.85;;;838.97;;
51838;SDS011;37886;53.174;6.368;2023-07-28T05:24:43;1135.65;;;824.67;;
51838;SDS011;37886;53.174;6.368;2023-07-28T05:27:09;1035.20;;;801.42;;
51838;SDS011;37886;53.174;6.368;2023-07-28T05:29:36;967.30;;;778.65;;
51838;SDS011;37886;53.174;6.368;2023-07-28T05:32:01;1037.13;;;815.70;;
51838;SDS011;37886;53.174;6.368;2023-07-28T05:34:29;914.53;;;781.78;;
51838;SDS011;37886;53.174;6.368;2023-07-28T05:36:55;825.95;;;737.60;;
51838;SDS011;37886;53.174;6.368;2023-07-28T05:39:21;873.88;;;778.40;;
51838;SDS011;37886;53.174;6.368;2023-07-28T05:41:46;841.65;;;749.38;;
51838;SDS011;37886;53.174;6.368;2023-07-28T05:44:12;998.92;;;792.85;;
51838;SDS011;37886;53.174;6.368;2023-07-28T05:46:38;759.53;;;678.08;;
51838;SDS011;37886;53.174;6.368;2023-07-28T05:49:03;772.38;;;688.13;;
51838;SDS011;37886;53.174;6.368;2023-07-28T05:51:30;805.67;;;710.35;;
51838;SDS011;37886;53.174;6.368;2023-07-28T05:53:56;797.95;;;712.78;;
51838;SDS011;37886;53.174;6.368;2023-07-28T05:56:21;838.75;;;744.63;;
51838;SDS011;37886;53.174;6.368;2023-07-28T05:58:47;1104.93;;;830.05;;
51838;SDS011;37886;53.174;6.368;2023-07-28T06:01:14;805.80;;;718.22;;
51838;SDS011;37886;53.174;6.368;2023-07-28T06:03:39;773.83;;;692.97;;
51838;SDS011;37886;53.174;6.368;2023-07-28T06:06:05;822.83;;;733.55;;
51838;SDS011;37886;53.174;6.368;2023-07-28T06:08:31;852.03;;;757.22;;
51838;SDS011;37886;53.174;6.368;2023-07-28T06:10:56;805.55;;;722.30;;
51838;SDS011;37886;53.174;6.368;2023-07-28T06:13:22;809.08;;;723.15;;
51838;SDS011;37886;53.174;6.368;2023-07-28T06:15:48;791.65;;;705.35;;
51838;SDS011;37886;53.174;6.368;2023-07-28T06:18:14;781.58;;;700.25;;
51838;SDS011;37886;53.174;6.368;2023-07-28T06:20:43;757.85;;;681.40;;
51838;SDS011;37886;53.174;6.368;2023-07-28T06:23:09;779.17;;;698.30;;
51838;SDS011;37886;53.174;6.368;2023-07-28T06:25:34;745.50;;;668.53;;
51838;SDS011;37886;53.174;6.368;2023-07-28T06:28:00;807.92;;;724.40;;
51838;SDS011;37886;53.174;6.368;2023-07-28T06:30:26;792.13;;;694.17;;
51838;SDS011;37886;53.174;6.368;2023-07-28T06:32:51;807.67;;;703.60;;
51838;SDS011;37886;53.174;6.368;2023-07-28T06:35:17;742.17;;;666.88;;
51838;SDS011;37886;53.174;6.368;2023-07-28T06:37:43;784.20;;;700.03;;
51838;SDS011;37886;53.174;6.368;2023-07-28T06:40:08;782.53;;;700.88;;
51838;SDS011;37886;53.174;6.368;2023-07-28T06:42:35;762.50;;;683.53;;
51838;SDS011;37886;53.174;6.368;2023-07-28T06:45:02;745.88;;;666.80;;
51838;SDS011;37886;53.174;6.368;2023-07-28T06:47:28;758.05;;;670.10;;
51838;SDS011;37886;53.174;6.368;2023-07-28T06:49:54;720.80;;;645.92;;
51838;SDS011;37886;53.174;6.368;2023-07-28T06:52:20;782.55;;;701.22;;
51838;SDS011;37886;53.174;6.368;2023-07-28T06:54:45;772.08;;;690.55;;
51838;SDS011;37886;53.174;6.368;2023-07-28T06:57:14;747.05;;;674.60;;
51838;SDS011;37886;53.174;6.368;2023-07-28T06:59:40;800.50;;;695.53;;
51838;SDS011;37886;53.174;6.368;2023-07-28T07:02:06;752.95;;;672.08;;
51838;SDS011;37886;53.174;6.368;2023-07-28T07:04:32;758.30;;;680.90;;
51838;SDS011;37886;53.174;6.368;2023-07-28T07:06:57;736.88;;;666.22;;
51838;SDS011;37886;53.174;6.368;2023-07-28T07:09:23;765.95;;;681.85;;
51838;SDS011;37886;53.174;6.368;2023-07-28T07:11:49;734.55;;;666.63;;
51838;SDS011;37886;53.174;6.368;2023-07-28T07:14:15;776.65;;;697.58;;
51838;SDS011;37886;53.174;6.368;2023-07-28T07:16:41;759.30;;;676.58;;
51838;SDS011;37886;53.174;6.368;2023-07-28T07:19:07;744.92;;;674.15;;
51838;SDS011;37886;53.174;6.368;2023-07-28T07:21:34;746.63;;;676.83;;
51838;SDS011;37886;53.174;6.368;2023-07-28T07:23:59;770.92;;;696.17;;
51838;SDS011;37886;53.174;6.368;2023-07-28T07:26:25;686.40;;;621.33;;
51838;SDS011;37886;53.174;6.368;2023-07-28T07:28:52;746.97;;;672.70;;
51838;SDS011;37886;53.174;6.368;2023-07-28T07:31:18;762.38;;;685.60;;
51838;SDS011;37886;53.174;6.368;2023-07-28T07:33:44;765.50;;;689.72;;
51838;SDS011;37886;53.174;6.368;2023-07-28T07:36:13;659.13;;;591.17;;
51838;SDS011;37886;53.174;6.368;2023-07-28T07:38:42;641.22;;;575.17;;
51838;SDS011;37886;53.174;6.368;2023-07-28T07:41:11;763.78;;;660.30;;
51838;SDS011;37886;53.174;6.368;2023-07-28T07:43:38;1016.42;;;779.92;;
51838;SDS011;37886;53.174;6.368;2023-07-28T07:46:04;753.65;;;671.20;;
51838;SDS011;37886;53.174;6.368;2023-07-28T07:48:30;863.70;;;717.35;;
51838;SDS011;37886;53.174;6.368;2023-07-28T07:50:55;753.25;;;667.83;;
51838;SDS011;37886;53.174;6.368;2023-07-28T07:53:21;955.33;;;775.50;;
51838;SDS011;37886;53.174;6.368;2023-07-28T07:55:47;641.55;;;575.10;;
51838;SDS011;37886;53.174;6.368;2023-07-28T07:58:14;673.92;;;606.80;;
51838;SDS011;37886;53.174;6.368;2023-07-28T08:00:40;835.92;;;722.17;;
51838;SDS011;37886;53.174;6.368;2023-07-28T08:03:05;811.83;;;703.00;;
51838;SDS011;37886;53.174;6.368;2023-07-28T08:05:31;910.08;;;763.47;;
51838;SDS011;37886;53.174;6.368;2023-07-28T08:07:57;758.15;;;674.83;;
51838;SDS011;37886;53.174;6.368;2023-07-28T08:10:22;736.72;;;651.88;;
51838;SDS011;37886;53.174;6.368;2023-07-28T08:12:48;864.08;;;700.50;;
51838;SDS011;37886;53.174;6.368;2023-07-28T08:15:14;709.50;;;634.92;;
51838;SDS011;37886;53.174;6.368;2023-07-28T08:17:40;899.75;;;755.58;;
51838;SDS011;37886;53.174;6.368;2023-07-28T08:20:09;885.38;;;742.10;;
51838;SDS011;37886;53.174;6.368;2023-07-28T08:22:34;846.33;;;747.28;;
51838;SDS011;37886;53.174;6.368;2023-07-28T08:25:00;1003.90;;;849.20;;
51838;SDS011;37886;53.174;6.368;2023-07-28T08:27:26;986.30;;;832.70;;
51838;SDS011;37886;53.174;6.368;2023-07-28T08:29:51;1088.25;;;863.20;;
51838;SDS011;37886;53.174;6.368;2023-07-28T08:32:17;832.88;;;719.20;;
51838;SDS011;37886;53.174;6.368;2023-07-28T08:34:43;1024.47;;;851.47;;
51838;SDS011;37886;53.174;6.368;2023-07-28T08:37:08;815.72;;;726.70;;
51838;SDS011;37886;53.174;6.368;2023-07-28T08:39:34;968.42;;;861.80;;
51838;SDS011;37886;53.174;6.368;2023-07-28T08:42:00;861.22;;;769.88;;
51838;SDS011;37886;53.174;6.368;2023-07-28T08:44:30;794.35;;;710.38;;
51838;SDS011;37886;53.174;6.368;2023-07-28T08:46:58;784.15;;;704.03;;
51838;SDS011;37886;53.174;6.368;2023-07-28T08:49:29;897.33;;;786.00;;
51838;SDS011;37886;53.174;6.368;2023-07-28T08:52:00;993.47;;;773.88;;
51838;SDS011;37886;53.174;6.368;2023-07-28T08:54:26;763.03;;;680.70;;
51838;SDS011;37886;53.174;6.368;2023-07-28T08:56:52;782.03;;;704.58;;
51838;SDS011;37886;53.174;6.368;2023-07-28T08:59:22;708.40;;;631.85;;
51838;SDS011;37886;53.174;6.368;2023-07-28T09:01:50;662.35;;;601.58;;
51838;SDS011;37886;53.174;6.368;2023-07-28T09:04:17;653.60;;;596.80;;
51838;SDS011;37886;53.174;6.368;2023-07-28T09:06:46;740.47;;;659.25;;
51838;SDS011;37886;53.174;6.368;2023-07-28T09:09:13;588.95;;;534.83;;
51838;SDS011;37886;53.174;6.368;2023-07-28T09:11:52;613.22;;;551.38;;
51838;SDS011;37886;53.174;6.368;2023-07-28T09:14:20;741.78;;;660.92;;
51838;SDS011;37886;53.174;6.368;2023-07-28T09:16:48;782.97;;;700.27;;
51838;SDS011;37886;53.174;6.368;2023-07-28T09:19:14;825.50;;;684.85;;
51838;SDS011;37886;53.174;6.368;2023-07-28T09:21:43;793.65;;;688.30;;
51838;SDS011;37886;53.174;6.368;2023-07-28T09:24:13;673.65;;;606.85;;
51838;SDS011;37886;53.174;6.368;2023-07-28T09:26:39;740.13;;;658.45;;
51838;SDS011;37886;53.174;6.368;2023-07-28T09:31:43;813.75;;;727.50;;
51838;SDS011;37886;53.174;6.368;2023-07-28T09:34:09;741.67;;;667.30;;
51838;SDS011;37886;53.174;6.368;2023-07-28T09:36:36;749.58;;;673.00;;
51838;SDS011;37886;53.174;6.368;2023-07-28T09:39:04;725.78;;;657.20;;
51838;SDS011;37886;53.174;6.368;2023-07-28T09:41:38;760.78;;;680.42;;
51838;SDS011;37886;53.174;6.368;2023-07-28T09:44:04;700.10;;;630.72;;
51838;SDS011;37886;53.174;6.368;2023-07-28T09:46:32;766.92;;;684.75;;
51838;SDS011;37886;53.174;6.368;2023-07-28T09:49:02;740.40;;;664.75;;
51838;SDS011;37886;53.174;6.368;2023-07-28T09:51:30;725.78;;;651.30;;
51838;SDS011;37886;53.174;6.368;2023-07-28T09:54:05;641.72;;;573.38;;
51838;SDS011;37886;53.174;6.368;2023-07-28T09:56:43;764.08;;;670.20;;
51838;SDS011;37886;53.174;6.368;2023-07-28T09:59:11;698.65;;;613.40;;
51838;SDS011;37886;53.174;6.368;2023-07-28T10:01:42;634.15;;;565.65;;
51838;SDS011;37886;53.174;6.368;2023-07-28T10:04:10;772.42;;;689.20;;
51838;SDS011;37886;53.174;6.368;2023-07-28T10:06:36;768.72;;;684.90;;
51838;SDS011;37886;53.174;6.368;2023-07-28T10:09:03;763.97;;;684.97;;
51838;SDS011;37886;53.174;6.368;2023-07-28T10:11:31;817.95;;;727.10;;
51838;SDS011;37886;53.174;6.368;2023-07-28T10:13:57;750.72;;;653.65;;
51838;SDS011;37886;53.174;6.368;2023-07-28T10:16:38;774.28;;;691.38;;
51838;SDS011;37886;53.174;6.368;2023-07-28T10:19:05;757.67;;;677.53;;
51838;SDS011;37886;53.174;6.368;2023-07-28T10:21:31;650.38;;;582.65;;
51838;SDS011;37886;53.174;6.368;2023-07-28T10:24:04;719.67;;;641.75;;
51838;SDS011;37886;53.174;6.368;2023-07-28T10:26:39;693.40;;;619.55;;
51838;SDS011;37886;53.174;6.368;2023-07-28T10:29:15;646.38;;;585.55;;
51838;SDS011;37886;53.174;6.368;2023-07-28T10:31:51;625.28;;;566.63;;
51838;SDS011;37886;53.174;6.368;2023-07-28T10:34:23;584.85;;;522.80;;
51838;SDS011;37886;53.174;6.368;2023-07-28T10:36:59;646.15;;;577.53;;
51838;SDS011;37886;53.174;6.368;2023-07-28T10:39:25;647.30;;;590.00;;
51838;SDS011;37886;53.174;6.368;2023-07-28T10:44:28;656.72;;;600.00;;
51838;SDS011;37886;53.174;6.368;2023-07-28T10:46:55;610.00;;;551.83;;
51838;SDS011;37886;53.174;6.368;2023-07-28T10:49:21;653.20;;;599.17;;
51838;SDS011;37886;53.174;6.368;2023-07-28T10:51:49;581.15;;;526.83;;
51838;SDS011;37886;53.174;6.368;2023-07-28T10:54:15;715.90;;;658.80;;
51838;SDS011;37886;53.174;6.368;2023-07-28T10:56:44;704.22;;;649.60;;
51838;SDS011;37886;53.174;6.368;2023-07-28T10:59:14;708.30;;;648.75;;
51838;SDS011;37886;53.174;6.368;2023-07-28T11:01:43;724.38;;;658.08;;
51838;SDS011;37886;53.174;6.368;2023-07-28T11:04:19;623.38;;;575.30;;
51838;SDS011;37886;53.174;6.368;2023-07-28T11:06:46;563.70;;;516.92;;
51838;SDS011;37886;53.174;6.368;2023-07-28T11:09:13;694.47;;;639.13;;
51838;SDS011;37886;53.174;6.368;2023-07-28T11:11:41;694.15;;;639.80;;
51838;SDS011;37886;53.174;6.368;2023-07-28T11:14:08;673.80;;;621.03;;
51838;SDS011;37886;53.174;6.368;2023-07-28T11:16:38;712.13;;;657.85;;
51838;SDS011;37886;53.174;6.368;2023-07-28T11:19:10;492.83;;;453.10;;
51838;SDS011;37886;53.174;6.368;2023-07-28T11:21:37;692.13;;;639.22;;
51838;SDS011;37886;53.174;6.368;2023-07-28T11:24:04;697.03;;;643.67;;
51838;SDS011;37886;53.174;6.368;2023-07-28T11:26:30;673.08;;;622.40;;
51838;SDS011;37886;53.174;6.368;2023-07-28T11:28:56;723.05;;;669.20;;
51838;SDS011;37886;53.174;6.368;2023-07-28T11:31:25;629.25;;;580.40;;
51838;SDS011;37886;53.174;6.368;2023-07-28T11:33:51;593.97;;;544.33;;
51838;SDS011;37886;53.174;6.368;2023-07-28T11:36:25;649.05;;;596.05;;
51838;SDS011;37886;53.174;6.368;2023-07-28T11:38:52;699.95;;;644.05;;
51838;SDS011;37886;53.174;6.368;2023-07-28T11:41:20;621.78;;;571.92;;
51838;SDS011;37886;53.174;6.368;2023-07-28T11:43:50;734.88;;;678.00;;
51838;SDS011;37886;53.174;6.368;2023-07-28T11:46:31;845.53;;;768.75;;
51838;SDS011;37886;53.174;6.368;2023-07-28T11:49:10;620.13;;;573.22;;
51838;SDS011;37886;53.174;6.368;2023-07-28T11:51:41;544.55;;;500.30;;
51838;SDS011;37886;53.174;6.368;2023-07-28T11:54:12;638.22;;;585.78;;
51838;SDS011;37886;53.174;6.368;2023-07-28T11:56:40;709.50;;;655.13;;
51838;SDS011;37886;53.174;6.368;2023-07-28T11:59:11;665.22;;;614.58;;
51838;SDS011;37886;53.174;6.368;2023-07-28T12:04:24;728.42;;;673.28;;
51838;SDS011;37886;53.174;6.368;2023-07-28T12:07:00;535.33;;;495.75;;
51838;SDS011;37886;53.174;6.368;2023-07-28T12:12:19;395.45;;;365.98;;
51838;SDS011;37886;53.174;6.368;2023-07-28T12:14:46;406.20;;;373.58;;
51838;SDS011;37886;53.174;6.368;2023-07-28T12:17:19;402.02;;;373.05;;
51838;SDS011;37886;53.174;6.368;2023-07-28T12:19:59;422.05;;;390.52;;
51838;SDS011;37886;53.174;6.368;2023-07-28T12:22:28;390.00;;;360.95;;
51838;SDS011;37886;53.174;6.368;2023-07-28T12:27:20;405.13;;;375.77;;
51838;SDS011;37886;53.174;6.368;2023-07-28T12:29:52;422.63;;;386.90;;
51838;SDS011;37886;53.174;6.368;2023-07-28T12:32:17;371.40;;;342.95;;
51838;SDS011;37886;53.174;6.368;2023-07-28T12:34:43;354.52;;;327.58;;
51838;SDS011;37886;53.174;6.368;2023-07-28T12:37:09;369.77;;;342.10;;
51838;SDS011;37886;53.174;6.368;2023-07-28T12:39:36;382.73;;;349.80;;
51838;SDS011;37886;53.174;6.368;2023-07-28T12:42:09;283.05;;;261.67;;
51838;SDS011;37886;53.174;6.368;2023-07-28T12:44:36;304.05;;;279.40;;
51838;SDS011;37886;53.174;6.368;2023-07-28T12:47:05;345.40;;;318.98;;
51838;SDS011;37886;53.174;6.368;2023-07-28T12:49:31;293.88;;;270.92;;
51838;SDS011;37886;53.174;6.368;2023-07-28T12:51:59;241.07;;;222.27;;
51838;SDS011;37886;53.174;6.368;2023-07-28T12:54:27;284.40;;;262.27;;
51838;SDS011;37886;53.174;6.368;2023-07-28T12:56:54;333.15;;;307.60;;
51838;SDS011;37886;53.174;6.368;2023-07-28T12:59:20;360.83;;;332.75;;
51838;SDS011;37886;53.174;6.368;2023-07-28T13:01:45;309.52;;;284.60;;
51838;SDS011;37886;53.174;6.368;2023-07-28T13:04:11;346.98;;;318.45;;
51838;SDS011;37886;53.174;6.368;2023-07-28T13:06:37;244.88;;;226.73;;
51838;SDS011;37886;53.174;6.368;2023-07-28T13:09:03;269.00;;;248.98;;
51838;SDS011;37886;53.174;6.368;2023-07-28T13:11:29;201.98;;;186.90;;
51838;SDS011;37886;53.174;6.368;2023-07-28T13:13:55;150.15;;;139.02;;
51838;SDS011;37886;53.174;6.368;2023-07-28T13:16:21;157.38;;;145.73;;
51838;SDS011;37886;53.174;6.368;2023-07-28T13:18:47;239.18;;;221.63;;
51838;SDS011;37886;53.174;6.368;2023-07-28T13:21:13;321.20;;;298.17;;
51838;SDS011;37886;53.174;6.368;2023-07-28T13:23:39;314.27;;;291.88;;
51838;SDS011;37886;53.174;6.368;2023-07-28T13:26:05;304.70;;;283.17;;
51838;SDS011;37886;53.174;6.368;2023-07-28T13:28:31;397.55;;;369.00;;
51838;SDS011;37886;53.174;6.368;2023-07-28T13:30:57;349.23;;;325.45;;
51838;SDS011;37886;53.174;6.368;2023-07-28T13:33:23;282.65;;;262.13;;
51838;SDS011;37886;53.174;6.368;2023-07-28T13:35:49;331.40;;;308.92;;
51838;SDS011;37886;53.174;6.368;2023-07-28T13:38:15;322.77;;;299.88;;
51838;SDS011;37886;53.174;6.368;2023-07-28T13:40:41;321.13;;;298.42;;
51838;SDS011;37886;53.174;6.368;2023-07-28T13:43:06;453.10;;;414.40;;
51838;SDS011;37886;53.174;6.368;2023-07-28T13:45:32;383.48;;;353.67;;
51838;SDS011;37886;53.174;6.368;2023-07-28T13:47:58;409.42;;;377.77;;
51838;SDS011;37886;53.174;6.368;2023-07-28T13:50:23;541.95;;;493.33;;
51838;SDS011;37886;53.174;6.368;2023-07-28T13:52:49;430.08;;;394.63;;
51838;SDS011;37886;53.174;6.368;2023-07-28T13:55:15;481.35;;;437.73;;
51838;SDS011;37886;53.174;6.368;2023-07-28T13:57:40;427.60;;;394.55;;
51838;SDS011;37886;53.174;6.368;2023-07-28T14:00:06;432.08;;;396.25;;
51838;SDS011;37886;53.174;6.368;2023-07-28T14:02:36;374.92;;;345.65;;
51838;SDS011;37886;53.174;6.368;2023-07-28T14:05:02;363.23;;;335.50;;
51838;SDS011;37886;53.174;6.368;2023-07-28T14:07:28;420.40;;;385.33;;
51838;SDS011;37886;53.174;6.368;2023-07-28T14:09:54;552.25;;;502.27;;